createdAt,value
2022-10-01T00:02:23.964Z,0.50
2022-10-01T00:04:54.704Z,0.57
2022-10-01T00:07:25.457Z,0.30
2022-10-01T00:09:56.494Z,0.30
2022-10-01T00:12:27.272Z,0.30
2022-10-01T00:14:58.012Z,0.40
2022-10-01T00:17:31.988Z,0.30
2022-10-01T00:20:10.479Z,0.30
2022-10-01T00:22:44.902Z,0.40
2022-10-01T00:25:15.960Z,0.20
2022-10-01T00:27:49.713Z,0.30
2022-10-01T00:30:21.812Z,0.43
2022-10-01T00:32:56.947Z,0.20
2022-10-01T00:35:28.893Z,0.30
2022-10-01T00:37:59.661Z,0.63
2022-10-01T00:40:31.204Z,0.30
2022-10-01T00:43:01.996Z,0.30
2022-10-01T00:45:33.343Z,0.10
2022-10-01T00:48:07.037Z,0.30
2022-10-01T00:50:39.544Z,0.15
2022-10-01T00:53:13.729Z,0.63
2022-10-01T00:55:47.269Z,0.30
2022-10-01T00:58:19.050Z,0.20
2022-10-01T01:00:50.641Z,0.10
2022-10-01T01:03:24.001Z,0.10
2022-10-01T01:05:55.031Z,0.10
2022-10-01T01:08:25.990Z,0.10
2022-10-01T01:11:05.540Z,0.10
2022-10-01T01:13:41.313Z,0.35
2022-10-01T01:16:19.016Z,0.40
2022-10-01T01:18:59.397Z,0.20
2022-10-01T01:21:34.658Z,0.30
2022-10-01T01:24:44.065Z,0.20
2022-10-01T01:27:27.539Z,0.10
2022-10-01T01:30:04.902Z,0.10
2022-10-01T01:32:43.044Z,0.20
2022-10-01T01:35:17.527Z,0.10
2022-10-01T01:37:53.788Z,0.10
2022-10-01T01:40:25.347Z,0.13
2022-10-01T01:42:58.473Z,0.10
2022-10-01T01:45:33.925Z,0.10
2022-10-01T01:48:06.149Z,0.20
2022-10-01T01:50:44.433Z,0.10
2022-10-01T01:53:15.457Z,0.20
2022-10-01T01:55:49.410Z,0.10
2022-10-01T01:58:21.725Z,0.10
2022-10-01T02:00:55.374Z,0.10
2022-10-01T02:03:29.760Z,0.10
2022-10-01T02:06:07.306Z,0.20
2022-10-01T02:08:42.125Z,0.13
2022-10-01T02:11:28.813Z,0.10
2022-10-01T02:14:07.300Z,0.10
2022-10-01T02:16:49.912Z,0.20
2022-10-01T02:19:28.394Z,0.20
2022-10-01T02:22:03.422Z,0.05
2022-10-01T02:24:42.918Z,0.00
2022-10-01T02:27:18.728Z,0.00
2022-10-01T02:29:50.573Z,0.10
2022-10-01T02:32:25.055Z,0.10
2022-10-01T02:34:57.195Z,0.10
2022-10-01T02:37:30.786Z,0.10
2022-10-01T02:40:04.761Z,0.10
2022-10-01T02:42:37.926Z,0.20
2022-10-01T02:45:10.312Z,0.13
2022-10-01T02:47:46.534Z,0.10
2022-10-01T02:50:18.244Z,0.20
2022-10-01T02:52:55.916Z,0.10
2022-10-01T02:55:31.070Z,0.17
2022-10-01T02:57:59.276Z,0.10
2022-10-01T03:00:30.252Z,0.10
2022-10-01T03:03:03.744Z,0.25
2022-10-01T03:05:35.039Z,0.10
2022-10-01T03:08:05.900Z,0.10
2022-10-01T03:10:36.992Z,0.20
2022-10-01T03:13:07.713Z,0.10
2022-10-01T03:15:38.684Z,0.20
2022-10-01T03:18:12.195Z,0.10
2022-10-01T03:20:43.052Z,0.10
2022-10-01T03:23:13.812Z,0.10
2022-10-01T03:25:44.517Z,0.10
2022-10-01T03:28:15.769Z,0.20
2022-10-01T03:30:46.786Z,0.10
2022-10-01T03:33:20.203Z,0.10
2022-10-01T03:35:50.927Z,0.10
2022-10-01T03:38:21.679Z,0.00
2022-10-01T03:40:52.391Z,0.20
2022-10-01T03:43:23.884Z,0.10
2022-10-01T03:45:55.357Z,0.10
2022-10-01T03:48:29.320Z,0.20
2022-10-01T03:51:02.061Z,0.20
2022-10-01T03:53:33.549Z,0.13
2022-10-01T03:56:05.636Z,0.30
2022-10-01T03:58:36.677Z,0.20
2022-10-01T04:01:07.458Z,0.10
2022-10-01T04:03:41.726Z,0.30
2022-10-01T04:06:12.801Z,0.10
2022-10-01T04:08:43.590Z,0.10
2022-10-01T04:11:14.495Z,0.20
2022-10-01T04:13:45.212Z,0.32
2022-10-01T04:16:16.088Z,0.30
2022-10-01T04:18:49.916Z,0.05
2022-10-01T04:21:20.965Z,0.30
2022-10-01T04:23:53.150Z,0.32
2022-10-01T04:26:24.017Z,0.45
2022-10-01T04:28:54.924Z,0.50
2022-10-01T04:31:35.336Z,0.28
2022-10-01T04:34:09.765Z,0.30
2022-10-01T04:36:40.490Z,0.30
2022-10-01T04:39:11.398Z,0.43
2022-10-01T04:41:42.157Z,0.30
2022-10-01T04:44:12.867Z,0.50
2022-10-01T04:46:44.009Z,0.40
2022-10-01T04:49:17.345Z,0.50
2022-10-01T04:51:48.307Z,0.60
2022-10-01T04:54:19.437Z,0.47
2022-10-01T04:56:50.157Z,0.55
2022-10-01T04:59:21.007Z,0.65
2022-10-01T05:01:51.759Z,0.40
2022-10-01T05:04:25.198Z,0.60
2022-10-01T05:06:56.968Z,0.40
2022-10-01T05:09:28.047Z,0.25
2022-10-01T05:11:58.752Z,0.20
2022-10-01T05:14:29.610Z,0.45
2022-10-01T05:17:00.401Z,0.20
2022-10-01T05:19:33.785Z,0.40
2022-10-01T05:22:04.591Z,0.30
2022-10-01T05:24:35.325Z,0.20
2022-10-01T05:27:06.136Z,0.20
2022-10-01T05:29:36.937Z,0.28
2022-10-01T05:32:07.927Z,0.30
2022-10-01T05:34:41.415Z,0.20
2022-10-01T05:37:12.235Z,0.22
2022-10-01T05:39:43.332Z,0.35
2022-10-01T05:42:14.144Z,0.32
2022-10-01T05:44:46.454Z,0.25
2022-10-01T05:47:17.556Z,0.20
2022-10-01T05:49:51.438Z,0.30
2022-10-01T05:52:22.839Z,0.40
2022-10-01T05:54:53.555Z,0.30
2022-10-01T05:57:24.301Z,0.30
2022-10-01T05:59:55.043Z,0.50
2022-10-01T06:02:25.923Z,0.30
2022-10-01T06:04:59.351Z,0.20
2022-10-01T06:07:34.345Z,0.22
2022-10-01T06:10:05.585Z,0.30
2022-10-01T06:12:36.994Z,0.40
2022-10-01T06:15:08.534Z,0.50
2022-10-01T06:17:44.052Z,0.20
2022-10-01T06:20:19.621Z,0.32
2022-10-01T06:22:57.609Z,0.57
2022-10-01T06:25:28.704Z,0.40
2022-10-01T06:28:01.385Z,0.20
2022-10-01T06:30:33.654Z,0.57
2022-10-01T06:33:05.852Z,0.32
2022-10-01T06:35:44.000Z,0.40
2022-10-01T06:38:15.074Z,0.28
2022-10-01T06:40:46.580Z,0.50
2022-10-01T06:43:17.308Z,0.43
2022-10-01T06:45:49.087Z,0.30
2022-10-01T06:48:22.112Z,0.25
2022-10-01T06:50:56.176Z,0.30
2022-10-01T06:53:25.458Z,0.30
2022-10-01T06:55:56.266Z,0.20
2022-10-01T06:58:29.505Z,0.30
2022-10-01T07:01:02.938Z,0.20
2022-10-01T07:03:35.184Z,0.50
2022-10-01T07:06:11.510Z,0.35
2022-10-01T07:08:42.249Z,0.40
2022-10-01T07:11:13.810Z,0.60
2022-10-01T07:13:44.903Z,0.40
2022-10-01T07:16:16.223Z,0.40
2022-10-01T07:18:47.081Z,0.50
2022-10-01T07:21:21.597Z,0.40
2022-10-01T07:23:53.349Z,0.40
2022-10-01T07:26:24.266Z,0.40
2022-10-01T07:28:55.491Z,0.30
2022-10-01T07:31:26.703Z,0.80
2022-10-01T07:34:01.070Z,0.20
2022-10-01T07:36:34.818Z,0.38
2022-10-01T07:39:05.793Z,0.50
2022-10-01T07:41:37.004Z,0.30
2022-10-01T07:44:08.049Z,0.35
2022-10-01T07:46:38.904Z,0.50
2022-10-01T07:49:09.857Z,0.38
2022-10-01T07:51:43.650Z,0.70
2022-10-01T07:54:14.913Z,0.20
2022-10-01T07:56:46.136Z,0.50
2022-10-01T07:59:18.725Z,0.32
2022-10-01T08:01:52.614Z,0.22
2022-10-01T08:04:36.732Z,0.75
2022-10-01T08:07:11.072Z,0.30
2022-10-01T08:09:42.124Z,0.40
2022-10-01T08:12:13.212Z,0.50
2022-10-01T08:14:44.048Z,0.40
2022-10-01T08:17:15.304Z,0.70
2022-10-01T08:19:46.509Z,0.50
2022-10-01T08:22:20.195Z,0.60
2022-10-01T08:24:51.072Z,0.45
2022-10-01T08:27:22.135Z,0.38
2022-10-01T08:29:53.748Z,0.40
2022-10-01T08:32:25.651Z,0.60
2022-10-01T08:34:59.403Z,0.90
2022-10-01T08:37:33.613Z,0.90
2022-10-01T08:40:05.293Z,0.57
2022-10-01T08:42:51.050Z,1.00
2022-10-01T08:45:29.382Z,0.80
2022-10-01T08:48:09.556Z,1.35
2022-10-01T08:50:47.740Z,0.30
2022-10-01T08:53:28.603Z,1.02
2022-10-01T08:56:01.798Z,0.70
2022-10-01T08:58:40.850Z,0.77
2022-10-01T09:01:14.144Z,0.70
2022-10-01T09:03:45.120Z,1.00
2022-10-01T09:06:23.477Z,1.00
2022-10-01T09:09:15.162Z,0.73
2022-10-01T09:11:55.464Z,0.80
2022-10-01T09:14:47.538Z,1.77
2022-10-01T09:17:24.785Z,1.05
2022-10-01T09:20:06.453Z,0.88
2022-10-01T09:22:42.277Z,0.82
2022-10-01T09:25:25.646Z,0.80
2022-10-01T09:28:04.788Z,1.00
2022-10-01T09:30:36.739Z,0.90
2022-10-01T09:33:14.989Z,1.33
2022-10-01T09:35:49.773Z,1.65
2022-10-01T09:38:26.656Z,1.48
2022-10-01T09:43:33.418Z,1.02
2022-10-01T09:46:07.284Z,1.08
2022-10-01T09:48:44.954Z,1.48
2022-10-01T09:51:22.432Z,1.23
2022-10-01T09:54:05.199Z,0.70
2022-10-01T09:56:44.827Z,0.70
2022-10-01T09:59:21.508Z,1.40
2022-10-01T10:01:56.771Z,1.42
2022-10-01T10:04:27.937Z,0.93
2022-10-01T10:07:05.367Z,1.10
2022-10-01T10:09:39.084Z,0.75
2022-10-01T10:12:30.432Z,0.80
2022-10-01T10:15:11.751Z,0.63
2022-10-01T10:17:46.803Z,0.65
2022-10-01T10:20:29.079Z,1.08
2022-10-01T10:23:10.704Z,0.75
2022-10-01T10:25:41.846Z,1.70
2022-10-01T10:28:25.869Z,1.42
2022-10-01T10:30:58.534Z,2.03
2022-10-01T10:33:29.813Z,1.50
2022-10-01T10:36:03.585Z,1.02
2022-10-01T10:38:37.432Z,0.75
2022-10-01T10:41:08.956Z,1.05
2022-10-01T10:43:43.053Z,1.40
2022-10-01T10:46:15.095Z,0.90
2022-10-01T10:48:49.731Z,1.58
2022-10-01T10:51:20.844Z,1.00
2022-10-01T10:53:51.728Z,1.10
2022-10-01T10:56:26.418Z,1.65
2022-10-01T10:59:11.287Z,1.00
2022-10-01T11:02:01.554Z,1.00
2022-10-01T11:04:43.488Z,0.80
2022-10-01T11:07:17.062Z,1.02
2022-10-01T11:10:02.974Z,0.85
2022-10-01T11:12:49.943Z,0.65
2022-10-01T11:15:45.463Z,0.90
2022-10-01T11:18:47.673Z,1.10
2022-10-01T11:21:35.265Z,1.15
2022-10-01T11:29:37.648Z,1.10
2022-10-01T11:32:22.552Z,1.40
2022-10-01T11:35:06.803Z,1.02
2022-10-01T11:37:49.812Z,1.05
2022-10-01T11:40:25.170Z,1.10
2022-10-01T11:43:01.664Z,1.00
2022-10-01T11:45:39.557Z,0.80
2022-10-01T11:48:24.474Z,1.20
2022-10-01T11:51:01.607Z,1.13
2022-10-01T11:53:36.841Z,1.20
2022-10-01T11:56:25.998Z,1.45
2022-10-01T11:59:03.348Z,1.13
2022-10-01T12:01:39.545Z,1.50
2022-10-01T12:04:32.953Z,1.00
2022-10-01T12:07:12.987Z,1.23
2022-10-01T12:09:58.285Z,1.70
2022-10-01T12:12:33.555Z,1.35
2022-10-01T12:15:12.630Z,1.30
2022-10-01T12:17:49.089Z,2.25
2022-10-01T12:20:29.408Z,1.70
2022-10-01T12:23:03.644Z,2.17
2022-10-01T12:25:42.293Z,1.70
2022-10-01T12:28:17.860Z,2.20
2022-10-01T12:30:58.218Z,2.00
2022-10-01T12:33:51.742Z,2.70
2022-10-01T12:36:37.063Z,2.40
2022-10-01T12:39:21.721Z,1.65
2022-10-01T12:42:10.634Z,2.25
2022-10-01T12:44:57.201Z,2.88
2022-10-01T12:47:38.587Z,1.60
2022-10-01T12:50:29.889Z,2.33
2022-10-01T12:53:22.702Z,1.70
2022-10-01T12:56:06.616Z,2.00
2022-10-01T12:59:06.568Z,1.67
2022-10-01T13:01:56.422Z,1.60
2022-10-01T13:04:46.609Z,1.60
2022-10-01T13:07:43.141Z,1.70
2022-10-01T13:10:32.867Z,1.30
2022-10-01T13:13:10.613Z,1.45
2022-10-01T13:15:45.331Z,1.75
2022-10-01T13:18:24.154Z,1.67
2022-10-01T13:21:05.976Z,1.73
2022-10-01T13:23:43.274Z,1.83
2022-10-01T13:26:21.799Z,1.15
2022-10-01T13:29:09.886Z,1.27
2022-10-01T13:31:55.435Z,1.52
2022-10-01T13:34:38.918Z,1.60
2022-10-01T13:37:19.936Z,1.25
2022-10-01T13:39:51.907Z,1.67
2022-10-01T13:42:31.378Z,1.75
2022-10-01T13:45:05.285Z,1.95
2022-10-01T13:47:41.153Z,1.00
2022-10-01T13:50:25.449Z,1.63
2022-10-01T13:53:09.914Z,1.88
2022-10-01T13:55:46.223Z,1.77
2022-10-01T13:58:38.782Z,1.42
2022-10-01T14:01:31.883Z,1.23
2022-10-01T14:04:10.692Z,1.55
2022-10-01T14:06:48.394Z,1.60
2022-10-01T14:09:25.479Z,1.48
2022-10-01T14:12:15.002Z,1.50
2022-10-01T14:15:25.447Z,1.38
2022-10-01T14:17:58.943Z,1.63
2022-10-01T14:20:37.192Z,1.20
2022-10-01T14:23:14.386Z,1.35
2022-10-01T14:25:53.766Z,1.50
2022-10-01T14:28:51.965Z,1.52
2022-10-01T14:31:36.291Z,1.73
2022-10-01T14:34:42.593Z,1.60
2022-10-01T14:37:17.686Z,0.98
2022-10-01T14:39:48.798Z,1.35
2022-10-01T14:42:21.193Z,2.10
2022-10-01T14:44:52.026Z,1.60
2022-10-01T14:47:28.079Z,1.10
2022-10-01T14:49:59.290Z,1.60
2022-10-01T14:52:32.990Z,1.30
2022-10-01T14:55:08.334Z,1.33
2022-10-01T14:57:44.102Z,1.38
2022-10-01T15:00:19.481Z,1.70
2022-10-01T15:02:54.432Z,1.70
2022-10-01T15:05:28.654Z,1.60
2022-10-01T15:07:59.920Z,2.28
2022-10-01T15:10:31.834Z,1.92
2022-10-01T15:13:03.491Z,1.42
2022-10-01T15:15:37.246Z,1.92
2022-10-01T15:18:11.751Z,1.35
2022-10-01T15:20:52.538Z,1.60
2022-10-01T15:23:24.694Z,1.52
2022-10-01T15:25:56.658Z,1.77
2022-10-01T15:28:32.197Z,2.10
2022-10-01T15:31:06.000Z,1.60
2022-10-01T15:33:42.899Z,1.00
2022-10-01T15:38:49.521Z,1.17
2022-10-01T15:41:32.010Z,1.20
2022-10-01T15:44:06.939Z,1.15
2022-10-01T15:46:38.374Z,1.63
2022-10-01T15:49:22.031Z,1.45
2022-10-01T15:52:13.238Z,2.03
2022-10-01T15:54:46.800Z,1.50
2022-10-01T15:57:23.764Z,1.10
2022-10-01T15:59:58.258Z,2.10
2022-10-01T16:02:33.970Z,1.50
2022-10-01T16:05:10.698Z,1.15
2022-10-01T16:07:41.754Z,1.33
2022-10-01T16:10:33.013Z,1.27
2022-10-01T16:13:24.725Z,2.20
2022-10-01T16:16:13.582Z,1.50
2022-10-01T16:18:45.448Z,1.63
2022-10-01T16:21:19.121Z,2.03
2022-10-01T16:23:53.389Z,1.70
2022-10-01T16:26:41.351Z,1.60
2022-10-01T16:29:28.141Z,1.25
2022-10-01T16:32:01.806Z,1.65
2022-10-01T16:34:33.031Z,1.35
2022-10-01T16:37:09.710Z,1.58
2022-10-01T16:39:40.534Z,1.23
2022-10-01T16:42:23.980Z,1.55
2022-10-01T16:44:58.712Z,1.05
2022-10-01T16:47:31.221Z,1.33
2022-10-01T16:50:03.713Z,1.00
2022-10-01T16:52:40.703Z,1.45
2022-10-01T16:55:23.455Z,1.10
2022-10-01T16:57:55.577Z,1.45
2022-10-01T17:00:29.980Z,1.25
2022-10-01T17:03:12.287Z,1.40
2022-10-01T17:05:44.489Z,1.00
2022-10-01T17:08:18.493Z,1.40
2022-10-01T17:10:57.168Z,1.40
2022-10-01T17:13:28.850Z,1.45
2022-10-01T17:16:00.272Z,1.10
2022-10-01T17:18:32.923Z,1.40
2022-10-01T17:21:07.009Z,1.30
2022-10-01T17:23:41.729Z,1.85
2022-10-01T17:26:13.381Z,1.25
2022-10-01T17:28:45.664Z,1.60
2022-10-01T17:31:18.003Z,1.77
2022-10-01T17:33:51.608Z,1.60
2022-10-01T17:36:22.792Z,1.60
2022-10-01T17:38:56.525Z,2.15
2022-10-01T17:41:27.399Z,1.55
2022-10-01T17:43:58.395Z,2.00
2022-10-01T17:46:29.132Z,1.65
2022-10-01T17:48:59.975Z,1.65
2022-10-01T17:51:31.529Z,1.65
2022-10-01T17:54:05.249Z,1.77
2022-10-01T17:56:36.452Z,1.50
2022-10-01T17:59:07.656Z,1.63
2022-10-01T18:01:40.091Z,1.40
2022-10-01T18:04:12.726Z,1.35
2022-10-01T18:06:44.421Z,1.63
2022-10-01T18:09:18.224Z,1.42
2022-10-01T18:11:49.815Z,1.23
2022-10-01T18:14:21.166Z,1.90
2022-10-01T18:16:52.580Z,1.70
2022-10-01T18:22:15.083Z,1.90
2022-10-01T18:24:49.389Z,1.90
2022-10-01T18:27:20.969Z,2.22
2022-10-01T18:29:52.193Z,1.50
2022-10-01T18:32:25.813Z,1.90
2022-10-01T18:35:00.913Z,1.48
2022-10-01T18:37:40.058Z,1.35
2022-10-01T18:40:18.321Z,1.55
2022-10-01T18:42:53.112Z,1.20
2022-10-01T18:45:35.300Z,1.50
2022-10-01T18:48:27.438Z,1.58
2022-10-01T18:51:03.007Z,1.38
2022-10-01T18:53:50.231Z,1.13
2022-10-01T18:56:45.013Z,1.55
2022-10-01T18:59:47.122Z,1.20
2022-10-01T19:02:37.230Z,1.20
2022-10-01T19:05:49.249Z,1.20
2022-10-01T19:08:32.286Z,1.63
2022-10-01T19:11:12.416Z,1.20
2022-10-01T19:13:57.477Z,1.35
2022-10-01T19:16:43.209Z,1.63
2022-10-01T19:19:28.577Z,1.50
2022-10-01T19:22:04.597Z,1.40
2022-10-01T19:25:07.897Z,1.45
2022-10-01T19:27:51.713Z,1.00
2022-10-01T19:30:25.571Z,1.13
2022-10-01T19:33:03.128Z,1.60
2022-10-01T19:35:37.821Z,1.85
2022-10-01T19:38:14.233Z,1.50
2022-10-01T19:40:50.735Z,0.88
2022-10-01T19:43:26.374Z,1.30
2022-10-01T19:46:07.770Z,1.38
2022-10-01T19:48:47.693Z,1.13
2022-10-01T19:51:22.791Z,1.23
2022-10-01T19:54:01.236Z,0.98
2022-10-01T19:56:35.146Z,1.67
2022-10-01T19:59:11.349Z,1.45
2022-10-01T20:01:51.085Z,0.87
2022-10-01T20:04:29.647Z,0.93
2022-10-01T20:07:06.679Z,1.33
2022-10-01T20:09:45.857Z,1.13
2022-10-01T20:12:26.524Z,1.00
2022-10-01T20:15:13.488Z,1.00
2022-10-01T20:18:00.908Z,0.90
2022-10-01T20:23:15.904Z,1.00
2022-10-01T20:25:52.055Z,1.05
2022-10-01T20:28:29.709Z,1.25
2022-10-01T20:31:09.188Z,1.58
2022-10-01T20:33:49.438Z,1.13
2022-10-01T20:36:27.857Z,0.93
2022-10-01T20:39:06.855Z,1.13
2022-10-01T20:41:44.530Z,0.90
2022-10-01T20:44:22.097Z,0.82
2022-10-01T20:46:57.700Z,1.33
2022-10-01T20:49:36.005Z,1.20
2022-10-01T20:52:16.961Z,1.00
2022-10-01T20:54:52.240Z,0.98
2022-10-01T20:57:31.602Z,1.15
2022-10-01T21:00:08.999Z,0.93
2022-10-01T21:02:46.410Z,0.70
2022-10-01T21:05:24.725Z,1.00
2022-10-01T21:08:02.363Z,0.90
2022-10-01T21:10:39.439Z,0.60
2022-10-01T21:13:18.154Z,0.80
2022-10-01T21:15:58.537Z,0.85
2022-10-01T21:18:44.967Z,1.30
2022-10-01T21:21:31.517Z,0.73
2022-10-01T21:24:12.020Z,0.70
2022-10-01T21:26:54.995Z,0.80
2022-10-01T21:29:41.444Z,0.60
2022-10-01T21:32:26.741Z,0.63
2022-10-01T21:35:08.601Z,0.55
2022-10-01T21:37:45.650Z,0.63
2022-10-01T21:40:23.979Z,0.50
2022-10-01T21:43:03.156Z,0.50
2022-10-01T21:45:45.054Z,0.60
2022-10-01T21:48:26.860Z,0.70
2022-10-01T21:51:00.226Z,0.60
2022-10-01T21:53:54.418Z,0.60
2022-10-01T21:56:50.261Z,0.60
2022-10-01T21:59:42.737Z,0.52
2022-10-01T22:02:30.605Z,0.60
2022-10-01T22:05:06.905Z,0.47
2022-10-01T22:07:43.358Z,0.50
2022-10-01T22:10:20.698Z,0.50
2022-10-01T22:12:55.050Z,0.45
2022-10-01T22:15:30.604Z,0.40
2022-10-01T22:18:06.034Z,0.50
2022-10-01T22:20:38.129Z,0.32
2022-10-01T22:23:13.360Z,0.40
2022-10-01T22:25:53.881Z,0.30
2022-10-01T22:28:30.258Z,0.60
2022-10-01T22:31:04.029Z,0.70
2022-10-01T22:33:39.940Z,0.52
2022-10-01T22:36:15.027Z,0.43
2022-10-01T22:38:53.572Z,0.30
2022-10-01T22:41:31.482Z,0.57
2022-10-01T22:44:02.847Z,0.32
2022-10-01T22:47:01.077Z,0.32
2022-10-01T22:49:43.537Z,0.65
2022-10-01T22:52:26.814Z,0.30
2022-10-01T22:55:08.497Z,0.68
2022-10-01T22:57:56.442Z,0.38
2022-10-01T23:00:27.579Z,0.32
2022-10-01T23:03:13.629Z,0.60
2022-10-01T23:05:56.444Z,0.30
2022-10-01T23:08:39.472Z,0.25
2022-10-01T23:11:21.098Z,0.35
2022-10-01T23:14:04.810Z,0.40
2022-10-01T23:16:46.882Z,0.40
2022-10-01T23:19:31.800Z,0.40
2022-10-01T23:22:09.747Z,0.50
2022-10-01T23:24:52.962Z,0.40
2022-10-01T23:27:37.002Z,0.40
2022-10-01T23:30:14.594Z,0.30
2022-10-01T23:33:07.171Z,0.40
2022-10-01T23:35:50.646Z,0.45
2022-10-01T23:38:38.372Z,0.40
2022-10-01T23:41:20.211Z,0.32
2022-10-01T23:43:55.157Z,0.50
2022-10-01T23:46:34.116Z,0.73
2022-10-01T23:49:09.461Z,0.40
2022-10-01T23:51:46.756Z,0.28
2022-10-01T23:54:26.770Z,0.82
2022-10-01T23:57:00.212Z,0.50
2022-10-01T23:59:34.872Z,0.60
